sensor_id;sensor_type;location;lat;lon;timestamp;pressure;altitude;pressure_sealevel;temperature;humidity
15263;BME280;7733;51.554;13.590;2023-04-26T00:00:25;100354.00;;;6.70;69.91
15263;BME280;7733;51.554;13.590;2023-04-26T00:02:53;100349.66;;;6.93;69.44
15263;BME280;7733;51.554;13.590;2023-04-26T00:05:20;100351.38;;;6.81;69.62
15263;BME280;7733;51.554;13.590;2023-04-26T00:07:45;100352.25;;;6.69;69.71
15263;BME280;7733;51.554;13.590;2023-04-26T00:10:12;100355.75;;;6.94;69.07
15263;BME280;7733;51.554;13.590;2023-04-26T00:12:38;100365.28;;;6.66;70.31
15263;BME280;7733;51.554;13.590;2023-04-26T00:15:06;100360.91;;;6.59;70.15
15263;BME280;7733;51.554;13.590;2023-04-26T00:17:32;100365.28;;;6.69;70.46
15263;BME280;7733;51.554;13.590;2023-04-26T00:19:58;100367.91;;;6.80;69.68
15263;BME280;7733;51.554;13.590;2023-04-26T00:22:24;100362.69;;;6.78;70.24
15263;BME280;7733;51.554;13.590;2023-04-26T00:24:50;100375.69;;;6.54;70.16
15263;BME280;7733;51.554;13.590;2023-04-26T00:27:16;100368.75;;;6.68;70.56
15263;BME280;7733;51.554;13.590;2023-04-26T00:29:42;100372.25;;;6.64;70.13
15263;BME280;7733;51.554;13.590;2023-04-26T00:32:08;100374.84;;;6.67;70.64
15263;BME280;7733;51.554;13.590;2023-04-26T00:34:35;100383.44;;;6.34;71.57
15263;BME280;7733;51.554;13.590;2023-04-26T00:37:03;100381.72;;;6.36;72.21
15263;BME280;7733;51.554;13.590;2023-04-26T00:39:29;100386.09;;;6.57;71.38
15263;BME280;7733;51.554;13.590;2023-04-26T00:41:56;100379.09;;;6.40;71.87
15263;BME280;7733;51.554;13.590;2023-04-26T00:44:22;100390.44;;;6.44;72.04
15263;BME280;7733;51.554;13.590;2023-04-26T00:46:52;100389.56;;;6.53;71.80
15263;BME280;7733;51.554;13.590;2023-04-26T00:49:21;100386.91;;;6.34;72.47
15263;BME280;7733;51.554;13.590;2023-04-26T00:51:50;100384.38;;;6.59;71.93
15263;BME280;7733;51.554;13.590;2023-04-26T00:54:18;100386.97;;;6.57;71.42
15263;BME280;7733;51.554;13.590;2023-04-26T00:56:45;100391.25;;;6.34;72.76
15263;BME280;7733;51.554;13.590;2023-04-26T00:59:11;100391.31;;;6.52;72.10
15263;BME280;7733;51.554;13.590;2023-04-26T01:01:36;100390.44;;;6.59;71.46
15263;BME280;7733;51.554;13.590;2023-04-26T01:04:03;100392.22;;;6.77;70.63
15263;BME280;7733;51.554;13.590;2023-04-26T01:06:35;100398.22;;;6.39;71.98
15263;BME280;7733;51.554;13.590;2023-04-26T01:09:04;100395.59;;;6.32;72.41
15263;BME280;7733;51.554;13.590;2023-04-26T01:11:35;100401.66;;;6.23;73.01
15263;BME280;7733;51.554;13.590;2023-04-26T01:14:03;100395.59;;;6.26;73.86
15263;BME280;7733;51.554;13.590;2023-04-26T01:16:29;100393.91;;;6.42;72.76
15263;BME280;7733;51.554;13.590;2023-04-26T01:18:56;100392.03;;;6.10;73.92
15263;BME280;7733;51.554;13.590;2023-04-26T01:21:23;100398.97;;;6.03;74.75
15263;BME280;7733;51.554;13.590;2023-04-26T01:23:50;100411.06;;;5.92;75.50
15263;BME280;7733;51.554;13.590;2023-04-26T01:26:17;100405.84;;;5.95;75.79
15263;BME280;7733;51.554;13.590;2023-04-26T01:28:43;100409.47;;;6.22;74.39
15263;BME280;7733;51.554;13.590;2023-04-26T01:31:10;100408.53;;;6.07;75.21
15263;BME280;7733;51.554;13.590;2023-04-26T01:33:36;100409.31;;;5.96;75.66
15263;BME280;7733;51.554;13.590;2023-04-26T01:36:07;100410.19;;;5.92;75.85
15263;BME280;7733;51.554;13.590;2023-04-26T01:38:33;100417.91;;;5.83;76.76
15263;BME280;7733;51.554;13.590;2023-04-26T01:40:58;100425.81;;;5.92;76.17
15263;BME280;7733;51.554;13.590;2023-04-26T01:43:24;100406.81;;;6.20;75.28
15263;BME280;7733;51.554;13.590;2023-04-26T01:45:50;100415.22;;;5.69;76.99
15263;BME280;7733;51.554;13.590;2023-04-26T01:48:16;100426.53;;;5.77;77.08
15263;BME280;7733;51.554;13.590;2023-04-26T01:50:42;100424.94;;;5.96;75.62
15263;BME280;7733;51.554;13.590;2023-04-26T01:53:07;100421.41;;;5.86;76.17
15263;BME280;7733;51.554;13.590;2023-04-26T01:55:33;100417.88;;;5.79;77.43
15263;BME280;7733;51.554;13.590;2023-04-26T01:57:59;100417.75;;;5.60;77.11
15263;BME280;7733;51.554;13.590;2023-04-26T02:00:27;100410.88;;;5.66;77.57
15263;BME280;7733;51.554;13.590;2023-04-26T02:02:56;100415.19;;;5.61;77.71
15263;BME280;7733;51.554;13.590;2023-04-26T02:05:23;100415.19;;;5.64;78.17
15263;BME280;7733;51.554;13.590;2023-04-26T02:07:49;100421.31;;;5.75;77.11
15263;BME280;7733;51.554;13.590;2023-04-26T02:10:15;100416.84;;;5.55;78.17
15263;BME280;7733;51.554;13.590;2023-04-26T02:12:41;100416.94;;;5.65;78.35
15263;BME280;7733;51.554;13.590;2023-04-26T02:15:08;100417.78;;;5.61;78.08
15263;BME280;7733;51.554;13.590;2023-04-26T02:17:34;100416.84;;;5.53;78.15
15263;BME280;7733;51.554;13.590;2023-04-26T02:20:03;100420.34;;;5.58;78.17
15263;BME280;7733;51.554;13.590;2023-04-26T02:22:28;100422.94;;;5.54;78.32
15263;BME280;7733;51.554;13.590;2023-04-26T02:24:54;100424.59;;;5.44;78.58
15263;BME280;7733;51.554;13.590;2023-04-26T02:27:20;100421.97;;;5.41;79.33
15263;BME280;7733;51.554;13.590;2023-04-26T02:29:46;100428.81;;;5.30;79.80
15263;BME280;7733;51.554;13.590;2023-04-26T02:32:12;100423.59;;;5.25;79.84
15263;BME280;7733;51.554;13.590;2023-04-26T02:34:38;100422.81;;;5.38;79.19
15263;BME280;7733;51.554;13.590;2023-04-26T02:37:05;100418.38;;;5.24;79.86
15263;BME280;7733;51.554;13.590;2023-04-26T02:39:30;100422.75;;;5.29;79.72
15263;BME280;7733;51.554;13.590;2023-04-26T02:41:56;100424.31;;;5.07;80.50
15263;BME280;7733;51.554;13.590;2023-04-26T02:44:22;100427.22;;;5.47;79.42
15263;BME280;7733;51.554;13.590;2023-04-26T02:46:48;100423.59;;;5.24;80.18
15263;BME280;7733;51.554;13.590;2023-04-26T02:49:13;100429.63;;;5.21;80.38
15263;BME280;7733;51.554;13.590;2023-04-26T02:51:40;100423.63;;;5.33;80.17
15263;BME280;7733;51.554;13.590;2023-04-26T02:54:05;100416.69;;;5.32;79.78
15263;BME280;7733;51.554;13.590;2023-04-26T02:56:31;100424.50;;;5.35;80.28
15263;BME280;7733;51.554;13.590;2023-04-26T02:58:57;100424.47;;;5.27;80.04
15263;BME280;7733;51.554;13.590;2023-04-26T03:01:23;100427.78;;;5.09;80.40
15263;BME280;7733;51.554;13.590;2023-04-26T03:03:49;100425.22;;;5.15;80.24
15263;BME280;7733;51.554;13.590;2023-04-26T03:06:14;100432.31;;;5.36;80.31
15263;BME280;7733;51.554;13.590;2023-04-26T03:08:40;100439.94;;;5.15;80.33
15263;BME280;7733;51.554;13.590;2023-04-26T03:11:06;100429.69;;;5.30;80.45
15263;BME280;7733;51.554;13.590;2023-04-26T03:13:31;100430.59;;;5.34;79.81
15263;BME280;7733;51.554;13.590;2023-04-26T03:15:57;100439.25;;;5.36;79.50
15263;BME280;7733;51.554;13.590;2023-04-26T03:18:23;100429.78;;;5.41;79.43
15263;BME280;7733;51.554;13.590;2023-04-26T03:20:49;100442.84;;;5.48;78.77
15263;BME280;7733;51.554;13.590;2023-04-26T03:23:14;100430.72;;;5.52;78.61
15263;BME280;7733;51.554;13.590;2023-04-26T03:25:40;100439.81;;;5.00;80.94
15263;BME280;7733;51.554;13.590;2023-04-26T03:28:06;100439.09;;;5.14;80.00
15263;BME280;7733;51.554;13.590;2023-04-26T03:30:31;100440.19;;;5.42;78.75
15263;BME280;7733;51.554;13.590;2023-04-26T03:32:57;100441.59;;;5.01;80.50
15263;BME280;7733;51.554;13.590;2023-04-26T03:35:23;100437.44;;;5.21;79.62
15263;BME280;7733;51.554;13.590;2023-04-26T03:37:49;100441.69;;;5.14;80.44
15263;BME280;7733;51.554;13.590;2023-04-26T03:40:14;100438.22;;;5.17;79.39
15263;BME280;7733;51.554;13.590;2023-04-26T03:42:41;100435.75;;;5.28;80.21
15263;BME280;7733;51.554;13.590;2023-04-26T03:45:07;100435.75;;;5.31;79.16
15263;BME280;7733;51.554;13.590;2023-04-26T03:47:33;100437.97;;;4.86;81.09
15263;BME280;7733;51.554;13.590;2023-04-26T03:49:59;100447.53;;;4.91;81.72
15263;BME280;7733;51.554;13.590;2023-04-26T03:52:25;100445.16;;;5.15;80.66
15263;BME280;7733;51.554;13.590;2023-04-26T03:54:51;100440.69;;;5.00;80.32
15263;BME280;7733;51.554;13.590;2023-04-26T03:57:17;100446.50;;;4.75;81.31
15263;BME280;7733;51.554;13.590;2023-04-26T03:59:42;100457.00;;;4.84;81.02
15263;BME280;7733;51.554;13.590;2023-04-26T04:02:08;100447.59;;;4.98;80.89
15263;BME280;7733;51.554;13.590;2023-04-26T04:04:34;100446.78;;;5.02;80.32
15263;BME280;7733;51.554;13.590;2023-04-26T04:07:00;100454.47;;;4.90;80.69
15263;BME280;7733;51.554;13.590;2023-04-26T04:09:26;100447.53;;;4.92;81.01
15263;BME280;7733;51.554;13.590;2023-04-26T04:11:51;100462.38;;;5.01;80.35
15263;BME280;7733;51.554;13.590;2023-04-26T04:14:17;100462.41;;;5.04;80.36
15263;BME280;7733;51.554;13.590;2023-04-26T04:16:43;100458.94;;;5.05;79.92
15263;BME280;7733;51.554;13.590;2023-04-26T04:19:08;100467.50;;;4.96;81.02
15263;BME280;7733;51.554;13.590;2023-04-26T04:21:34;100461.59;;;5.12;80.28
15263;BME280;7733;51.554;13.590;2023-04-26T04:24:00;100469.13;;;4.83;80.87
15263;BME280;7733;51.554;13.590;2023-04-26T04:26:26;100470.75;;;4.77;82.05
15263;BME280;7733;51.554;13.590;2023-04-26T04:28:55;100469.28;;;5.00;80.84
15263;BME280;7733;51.554;13.590;2023-04-26T04:31:21;100465.91;;;5.10;80.42
15263;BME280;7733;51.554;13.590;2023-04-26T04:33:47;100459.13;;;5.26;79.84
15263;BME280;7733;51.554;13.590;2023-04-26T04:36:13;100466.75;;;5.06;80.26
15263;BME280;7733;51.554;13.590;2023-04-26T04:38:42;100466.00;;;5.19;80.37
15263;BME280;7733;51.554;13.590;2023-04-26T04:41:08;100476.31;;;5.09;81.53
15263;BME280;7733;51.554;13.590;2023-04-26T04:43:34;100471.16;;;5.15;80.77
15263;BME280;7733;51.554;13.590;2023-04-26T04:46:00;100477.94;;;4.99;81.30
15263;BME280;7733;51.554;13.590;2023-04-26T04:48:26;100484.13;;;5.10;81.65
15263;BME280;7733;51.554;13.590;2023-04-26T04:50:52;100488.31;;;4.99;82.21
15263;BME280;7733;51.554;13.590;2023-04-26T04:53:17;100493.63;;;5.08;82.14
15263;BME280;7733;51.554;13.590;2023-04-26T04:55:43;100487.56;;;5.09;81.77
15263;BME280;7733;51.554;13.590;2023-04-26T04:58:09;100491.94;;;5.13;81.91
15263;BME280;7733;51.554;13.590;2023-04-26T05:00:35;100490.16;;;5.08;82.34
15263;BME280;7733;51.554;13.590;2023-04-26T05:03:03;100496.22;;;5.05;81.99
15263;BME280;7733;51.554;13.590;2023-04-26T05:05:30;100490.84;;;4.90;84.09
15263;BME280;7733;51.554;13.590;2023-04-26T05:07:55;100494.28;;;4.86;83.71
15263;BME280;7733;51.554;13.590;2023-04-26T05:10:21;100489.47;;;5.26;83.04
15263;BME280;7733;51.554;13.590;2023-04-26T05:12:47;100499.03;;;5.30;82.80
15263;BME280;7733;51.554;13.590;2023-04-26T05:15:13;100494.56;;;5.16;83.15
15263;BME280;7733;51.554;13.590;2023-04-26T05:17:40;100500.72;;;5.23;83.02
15263;BME280;7733;51.554;13.590;2023-04-26T05:20:07;100500.72;;;5.23;83.75
15263;BME280;7733;51.554;13.590;2023-04-26T05:22:33;100499.00;;;5.25;83.36
15263;BME280;7733;51.554;13.590;2023-04-26T05:25:01;100508.31;;;5.03;83.77
15263;BME280;7733;51.554;13.590;2023-04-26T05:27:29;100505.06;;;5.24;83.18
15263;BME280;7733;51.554;13.590;2023-04-26T05:29:54;100508.56;;;5.28;83.46
15263;BME280;7733;51.554;13.590;2023-04-26T05:32:20;100510.34;;;5.35;83.58
15263;BME280;7733;51.554;13.590;2023-04-26T05:34:46;100514.69;;;5.39;83.34
15263;BME280;7733;51.554;13.590;2023-04-26T05:37:12;100514.81;;;5.49;83.15
15263;BME280;7733;51.554;13.590;2023-04-26T05:39:38;100522.59;;;5.46;83.57
15263;BME280;7733;51.554;13.590;2023-04-26T05:42:03;100522.66;;;5.57;82.86
15263;BME280;7733;51.554;13.590;2023-04-26T05:44:29;100519.25;;;5.61;82.38
15263;BME280;7733;51.554;13.590;2023-04-26T05:46:55;100520.06;;;5.57;82.30
15263;BME280;7733;51.554;13.590;2023-04-26T05:49:21;100525.28;;;5.60;82.20
15263;BME280;7733;51.554;13.590;2023-04-26T05:51:47;100526.13;;;5.53;82.84
15263;BME280;7733;51.554;13.590;2023-04-26T05:54:13;100533.19;;;5.69;81.72
15263;BME280;7733;51.554;13.590;2023-04-26T05:56:38;100531.53;;;5.79;82.15
15263;BME280;7733;51.554;13.590;2023-04-26T05:59:04;100532.53;;;5.92;81.87
15263;BME280;7733;51.554;13.590;2023-04-26T06:01:30;100538.63;;;5.97;81.08
15263;BME280;7733;51.554;13.590;2023-04-26T06:03:56;100535.06;;;5.86;81.02
15263;BME280;7733;51.554;13.590;2023-04-26T06:06:21;100535.25;;;6.07;80.53
15263;BME280;7733;51.554;13.590;2023-04-26T06:08:47;100535.16;;;5.98;80.33
15263;BME280;7733;51.554;13.590;2023-04-26T06:11:13;100531.81;;;6.16;79.59
15263;BME280;7733;51.554;13.590;2023-04-26T06:13:38;100531.78;;;6.11;80.34
15263;BME280;7733;51.554;13.590;2023-04-26T06:16:04;100537.13;;;6.34;79.62
15263;BME280;7733;51.554;13.590;2023-04-26T06:18:30;100533.72;;;6.43;79.23
15263;BME280;7733;51.554;13.590;2023-04-26T06:20:56;100523.19;;;6.21;78.82
15263;BME280;7733;51.554;13.590;2023-04-26T06:23:22;100533.69;;;6.39;78.79
15263;BME280;7733;51.554;13.590;2023-04-26T06:25:47;100534.50;;;6.29;78.91
15263;BME280;7733;51.554;13.590;2023-04-26T06:28:13;100529.16;;;6.08;78.63
15263;BME280;7733;51.554;13.590;2023-04-26T06:30:39;100538.88;;;6.33;79.36
15263;BME280;7733;51.554;13.590;2023-04-26T06:33:06;100538.06;;;6.44;78.05
15263;BME280;7733;51.554;13.590;2023-04-26T06:35:31;100539.84;;;6.52;78.18
15263;BME280;7733;51.554;13.590;2023-04-26T06:37:57;100544.16;;;6.46;77.43
15263;BME280;7733;51.554;13.590;2023-04-26T06:40:23;100543.31;;;6.48;76.25
15263;BME280;7733;51.554;13.590;2023-04-26T06:42:48;100540.72;;;6.59;76.86
15263;BME280;7733;51.554;13.590;2023-04-26T06:45:14;100542.53;;;6.72;75.99
15263;BME280;7733;51.554;13.590;2023-04-26T06:47:40;100539.91;;;6.69;76.54
15263;BME280;7733;51.554;13.590;2023-04-26T06:50:07;100546.94;;;6.88;76.30
15263;BME280;7733;51.554;13.590;2023-04-26T06:52:33;100541.66;;;6.73;75.88
15263;BME280;7733;51.554;13.590;2023-04-26T06:55:02;100549.47;;;6.70;74.98
15263;BME280;7733;51.554;13.590;2023-04-26T06:57:28;100546.03;;;6.80;75.77
15263;BME280;7733;51.554;13.590;2023-04-26T06:59:54;100546.88;;;6.73;74.72
15263;BME280;7733;51.554;13.590;2023-04-26T07:02:20;100556.50;;;6.88;73.69
15263;BME280;7733;51.554;13.590;2023-04-26T07:04:47;100546.19;;;7.29;74.22
15263;BME280;7733;51.554;13.590;2023-04-26T07:07:13;100540.09;;;7.25;73.92
15263;BME280;7733;51.554;13.590;2023-04-26T07:09:40;100541.75;;;6.97;73.67
15263;BME280;7733;51.554;13.590;2023-04-26T07:12:06;100543.56;;;7.35;72.16
15263;BME280;7733;51.554;13.590;2023-04-26T07:14:31;100541.84;;;7.25;72.52
15263;BME280;7733;51.554;13.590;2023-04-26T07:16:57;100536.63;;;7.28;71.31
15263;BME280;7733;51.554;13.590;2023-04-26T07:19:23;100542.75;;;7.70;71.13
15263;BME280;7733;51.554;13.590;2023-04-26T07:21:49;100536.66;;;7.66;69.82
15263;BME280;7733;51.554;13.590;2023-04-26T07:24:14;100541.00;;;7.84;69.87
15263;BME280;7733;51.554;13.590;2023-04-26T07:26:40;100534.91;;;7.51;69.92
15263;BME280;7733;51.554;13.590;2023-04-26T07:29:06;100533.16;;;7.52;67.50
15263;BME280;7733;51.554;13.590;2023-04-26T07:31:32;100533.16;;;7.93;67.67
15263;BME280;7733;51.554;13.590;2023-04-26T07:33:57;100538.41;;;7.67;66.11
15263;BME280;7733;51.554;13.590;2023-04-26T07:36:24;100548.84;;;7.76;65.66
15263;BME280;7733;51.554;13.590;2023-04-26T07:38:49;100539.25;;;8.03;65.33
15263;BME280;7733;51.554;13.590;2023-04-26T07:41:15;100534.91;;;8.02;63.16
15263;BME280;7733;51.554;13.590;2023-04-26T07:43:42;100539.25;;;8.07;65.40
15263;BME280;7733;51.554;13.590;2023-04-26T07:46:08;100533.97;;;8.39;64.33
15263;BME280;7733;51.554;13.590;2023-04-26T07:48:33;100546.16;;;8.45;64.73
15263;BME280;7733;51.554;13.590;2023-04-26T07:51:10;100549.69;;;8.13;63.30
15263;BME280;7733;51.554;13.590;2023-04-26T07:53:37;100556.66;;;7.96;64.88
15263;BME280;7733;51.554;13.590;2023-04-26T07:56:05;100552.31;;;7.74;64.84
15263;BME280;7733;51.554;13.590;2023-04-26T07:58:33;100559.28;;;7.76;65.04
15263;BME280;7733;51.554;13.590;2023-04-26T08:00:59;100546.16;;;8.28;63.63
15263;BME280;7733;51.554;13.590;2023-04-26T08:03:25;100536.56;;;8.50;61.04
15263;BME280;7733;51.554;13.590;2023-04-26T08:05:54;100538.25;;;8.66;61.31
15263;BME280;7733;51.554;13.590;2023-04-26T08:08:21;100534.47;;;9.19;59.94
15263;BME280;7733;51.554;13.590;2023-04-26T08:10:47;100536.25;;;9.22;61.27
15263;BME280;7733;51.554;13.590;2023-04-26T08:13:13;100542.59;;;8.69;60.41
15263;BME280;7733;51.554;13.590;2023-04-26T08:15:39;100556.63;;;8.39;60.19
15263;BME280;7733;51.554;13.590;2023-04-26T08:18:05;100550.53;;;8.38;59.43
15263;BME280;7733;51.554;13.590;2023-04-26T08:20:31;100542.63;;;8.64;59.51
15263;BME280;7733;51.554;13.590;2023-04-26T08:23:00;100546.03;;;8.78;60.00
15263;BME280;7733;51.554;13.590;2023-04-26T08:25:26;100550.28;;;8.99;60.28
15263;BME280;7733;51.554;13.590;2023-04-26T08:27:52;100540.88;;;8.63;60.35
15263;BME280;7733;51.554;13.590;2023-04-26T08:30:18;100547.81;;;8.70;60.56
15263;BME280;7733;51.554;13.590;2023-04-26T08:32:45;100544.19;;;9.06;59.57
15263;BME280;7733;51.554;13.590;2023-04-26T08:35:11;100544.03;;;9.29;58.82
15263;BME280;7733;51.554;13.590;2023-04-26T08:37:37;100535.09;;;9.58;57.31
15263;BME280;7733;51.554;13.590;2023-04-26T08:40:07;100532.72;;;9.27;54.30
15263;BME280;7733;51.554;13.590;2023-04-26T08:42:42;100536.06;;;9.46;56.23
15263;BME280;7733;51.554;13.590;2023-04-26T08:45:11;100538.91;;;9.12;57.03
15263;BME280;7733;51.554;13.590;2023-04-26T08:47:49;100545.91;;;9.09;56.56
15263;BME280;7733;51.554;13.590;2023-04-26T08:50:19;100540.59;;;9.21;56.74
15263;BME280;7733;51.554;13.590;2023-04-26T08:52:48;100543.31;;;9.03;57.16
15263;BME280;7733;51.554;13.590;2023-04-26T08:55:15;100544.28;;;8.77;57.57
15263;BME280;7733;51.554;13.590;2023-04-26T08:57:45;100544.22;;;8.93;57.44
15263;BME280;7733;51.554;13.590;2023-04-26T09:00:12;100553.00;;;8.84;57.21
15263;BME280;7733;51.554;13.590;2023-04-26T09:02:46;100541.56;;;9.06;55.04
15263;BME280;7733;51.554;13.590;2023-04-26T09:05:12;100545.66;;;9.49;54.14
15263;BME280;7733;51.554;13.590;2023-04-26T09:07:46;100541.91;;;9.80;54.91
15263;BME280;7733;51.554;13.590;2023-04-26T09:10:17;100555.88;;;9.79;55.14
15263;BME280;7733;51.554;13.590;2023-04-26T09:12:44;100548.44;;;9.24;55.68
15263;BME280;7733;51.554;13.590;2023-04-26T09:15:10;100549.53;;;8.83;56.12
15263;BME280;7733;51.554;13.590;2023-04-26T09:17:37;100552.94;;;8.93;56.64
15263;BME280;7733;51.554;13.590;2023-04-26T09:20:24;100561.63;;;9.00;54.46
15263;BME280;7733;51.554;13.590;2023-04-26T09:23:04;100551.94;;;9.19;54.41
15263;BME280;7733;51.554;13.590;2023-04-26T09:25:31;100548.38;;;9.33;53.09
15263;BME280;7733;51.554;13.590;2023-04-26T09:27:58;100548.38;;;9.33;53.28
15263;BME280;7733;51.554;13.590;2023-04-26T09:30:27;100552.63;;;9.50;53.18
15263;BME280;7733;51.554;13.590;2023-04-26T09:32:59;100554.59;;;9.11;54.87
15263;BME280;7733;51.554;13.590;2023-04-26T09:35:40;100548.56;;;9.01;55.56
15263;BME280;7733;51.554;13.590;2023-04-26T09:38:16;100554.59;;;9.12;55.22
15263;BME280;7733;51.554;13.590;2023-04-26T09:40:48;100564.25;;;9.01;53.34
15263;BME280;7733;51.554;13.590;2023-04-26T09:43:20;100557.16;;;9.26;54.74
15263;BME280;7733;51.554;13.590;2023-04-26T09:45:57;100559.06;;;8.91;52.41
15263;BME280;7733;51.554;13.590;2023-04-26T09:48:27;100567.75;;;8.99;50.72
15263;BME280;7733;51.554;13.590;2023-04-26T09:53:37;100554.44;;;9.37;51.51
15263;BME280;7733;51.554;13.590;2023-04-26T09:56:14;100551.94;;;9.19;51.23
15263;BME280;7733;51.554;13.590;2023-04-26T10:01:18;100557.16;;;9.26;53.08
15263;BME280;7733;51.554;13.590;2023-04-26T10:03:45;100554.63;;;9.08;53.66
15263;BME280;7733;51.554;13.590;2023-04-26T10:06:17;100555.22;;;9.53;53.92
15263;BME280;7733;51.554;13.590;2023-04-26T10:08:44;100556.09;;;9.52;52.14
15263;BME280;7733;51.554;13.590;2023-04-26T10:11:10;100558.66;;;9.58;52.74
15263;BME280;7733;51.554;13.590;2023-04-26T10:13:38;100557.84;;;9.51;53.58
15263;BME280;7733;51.554;13.590;2023-04-26T10:16:05;100560.09;;;9.98;54.06
15263;BME280;7733;51.554;13.590;2023-04-26T10:18:31;100560.28;;;9.75;55.66
15263;BME280;7733;51.554;13.590;2023-04-26T10:21:26;100561.25;;;9.61;54.94
15263;BME280;7733;51.554;13.590;2023-04-26T10:23:53;100564.06;;;9.33;54.44
15263;BME280;7733;51.554;13.590;2023-04-26T10:26:51;100555.28;;;9.40;53.38
15263;BME280;7733;51.554;13.590;2023-04-26T10:29:20;100546.88;;;10.11;52.51
15263;BME280;7733;51.554;13.590;2023-04-26T10:34:29;100531.22;;;10.86;52.47
15263;BME280;7733;51.554;13.590;2023-04-26T10:37:16;100539.50;;;10.51;50.82
15263;BME280;7733;51.554;13.590;2023-04-26T10:39:45;100540.31;;;10.56;50.51
15263;BME280;7733;51.554;13.590;2023-04-26T10:42:28;100538.28;;;10.82;50.85
15263;BME280;7733;51.554;13.590;2023-04-26T10:44:57;100548.84;;;10.75;51.03
15263;BME280;7733;51.554;13.590;2023-04-26T10:47:34;100555.88;;;9.79;52.08
15263;BME280;7733;51.554;13.590;2023-04-26T10:50:07;100559.63;;;9.48;55.03
15263;BME280;7733;51.554;13.590;2023-04-26T10:55:55;100566.50;;;9.61;56.97
15263;BME280;7733;51.554;13.590;2023-04-26T10:58:32;100567.63;;;9.26;57.75
15263;BME280;7733;51.554;13.590;2023-04-26T11:01:07;100568.19;;;9.69;55.61
15263;BME280;7733;51.554;13.590;2023-04-26T11:03:36;100566.22;;;9.97;55.00
15263;BME280;7733;51.554;13.590;2023-04-26T11:06:11;100556.38;;;10.25;55.35
15263;BME280;7733;51.554;13.590;2023-04-26T11:08:40;100562.19;;;10.53;52.25
15263;BME280;7733;51.554;13.590;2023-04-26T11:11:16;100552.78;;;10.34;50.30
15263;BME280;7733;51.554;13.590;2023-04-26T11:13:45;100547.53;;;10.35;50.82
15263;BME280;7733;51.554;13.590;2023-04-26T11:16:16;100570.69;;;9.85;50.79
15263;BME280;7733;51.554;13.590;2023-04-26T11:18:44;100557.81;;;9.54;51.74
15263;BME280;7733;51.554;13.590;2023-04-26T11:21:11;100576.09;;;9.63;53.94
15263;BME280;7733;51.554;13.590;2023-04-26T11:23:39;100570.16;;;9.37;56.12
15263;BME280;7733;51.554;13.590;2023-04-26T11:26:07;100586.03;;;9.08;59.01
15263;BME280;7733;51.554;13.590;2023-04-26T11:28:37;100580.78;;;9.11;60.17
15263;BME280;7733;51.554;13.590;2023-04-26T11:31:05;100588.34;;;9.61;59.42
15263;BME280;7733;51.554;13.590;2023-04-26T11:33:32;100578.94;;;9.28;58.69
15263;BME280;7733;51.554;13.590;2023-04-26T11:36:01;100576.38;;;9.22;59.11
15263;BME280;7733;51.554;13.590;2023-04-26T11:38:28;100585.16;;;9.09;58.72
15263;BME280;7733;51.554;13.590;2023-04-26T11:40:58;100580.78;;;9.11;58.64
15263;BME280;7733;51.554;13.590;2023-04-26T11:43:38;100579.00;;;9.13;56.12
15263;BME280;7733;51.554;13.590;2023-04-26T11:46:05;100572.88;;;9.22;57.12
15263;BME280;7733;51.554;13.590;2023-04-26T11:48:34;100571.00;;;9.45;56.35
15263;BME280;7733;51.554;13.590;2023-04-26T11:51:03;100577.75;;;9.75;53.72
15263;BME280;7733;51.554;13.590;2023-04-26T11:53:40;100578.63;;;9.74;52.54
15263;BME280;7733;51.554;13.590;2023-04-26T11:56:20;100573.41;;;9.74;55.02
15263;BME280;7733;51.554;13.590;2023-04-26T11:58:51;100576.00;;;9.75;52.87
15263;BME280;7733;51.554;13.590;2023-04-26T12:01:25;100575.06;;;9.84;53.76
15263;BME280;7733;51.554;13.590;2023-04-26T12:03:57;100575.56;;;10.30;52.83
15263;BME280;7733;51.554;13.590;2023-04-26T12:06:56;100568.25;;;10.61;52.12
15263;BME280;7733;51.554;13.590;2023-04-26T12:09:25;100570.63;;;10.80;50.27
15263;BME280;7733;51.554;13.590;2023-04-26T12:12:00;100583.41;;;10.32;50.56
15263;BME280;7733;51.554;13.590;2023-04-26T12:14:35;100581.75;;;10.25;50.45
15263;BME280;7733;51.554;13.590;2023-04-26T12:17:04;100580.16;;;9.99;52.04
15263;BME280;7733;51.554;13.590;2023-04-26T12:19:35;100585.72;;;9.57;53.61
15263;BME280;7733;51.554;13.590;2023-04-26T12:22:02;100596.19;;;9.58;56.93
15263;BME280;7733;51.554;13.590;2023-04-26T12:24:29;100597.22;;;9.34;57.95
15263;BME280;7733;51.554;13.590;2023-04-26T12:27:02;100590.38;;;9.09;59.13
15263;BME280;7733;51.554;13.590;2023-04-26T12:29:29;100591.94;;;9.39;59.95
15263;BME280;7733;51.554;13.590;2023-04-26T12:31:57;100587.47;;;9.56;61.15
15263;BME280;7733;51.554;13.590;2023-04-26T12:34:23;100585.66;;;9.69;59.73
15263;BME280;7733;51.554;13.590;2023-04-26T12:36:49;100583.66;;;10.01;58.26
15263;BME280;7733;51.554;13.590;2023-04-26T12:39:15;100582.78;;;9.99;58.40
15263;BME280;7733;51.554;13.590;2023-04-26T12:41:42;100571.72;;;10.60;55.39
15263;BME280;7733;51.554;13.590;2023-04-26T12:44:09;100567.19;;;11.44;53.91
15263;BME280;7733;51.554;13.590;2023-04-26T12:46:35;100565.06;;;11.07;54.10
15263;BME280;7733;51.554;13.590;2023-04-26T12:49:02;100574.50;;;10.48;51.57
15263;BME280;7733;51.554;13.590;2023-04-26T12:51:29;100578.16;;;10.32;52.76
15263;BME280;7733;51.554;13.590;2023-04-26T12:53:56;100571.03;;;10.46;51.07
15263;BME280;7733;51.554;13.590;2023-04-26T12:56:23;100573.81;;;10.31;51.36
15263;BME280;7733;51.554;13.590;2023-04-26T12:58:49;100576.47;;;10.20;52.11
15263;BME280;7733;51.554;13.590;2023-04-26T13:01:15;100579.75;;;10.47;52.35
15263;BME280;7733;51.554;13.590;2023-04-26T13:03:41;100581.66;;;10.31;53.38
15263;BME280;7733;51.554;13.590;2023-04-26T13:06:07;100569.25;;;10.48;52.22
15263;BME280;7733;51.554;13.590;2023-04-26T13:08:33;100572.66;;;10.56;52.22
15263;BME280;7733;51.554;13.590;2023-04-26T13:10:59;100581.22;;;10.74;52.31
15263;BME280;7733;51.554;13.590;2023-04-26T13:13:25;100576.88;;;11.37;51.12